sensor_id;sensor_type;location;lat;lon;timestamp;pressure;altitude;pressure_sealevel;temperature;humidity
22872;BME280;11603;44.910;8.630;2023-02-19T00:01:34;101518.81;;;10.59;100.00
22872;BME280;11603;44.910;8.630;2023-02-19T00:04:03;101511.66;;;10.60;100.00
22872;BME280;11603;44.910;8.630;2023-02-19T00:06:30;101512.66;;;10.57;100.00
22872;BME280;11603;44.910;8.630;2023-02-19T00:08:56;101517.81;;;10.62;100.00
22872;BME280;11603;44.910;8.630;2023-02-19T00:11:23;101511.38;;;10.66;100.00
22872;BME280;11603;44.910;8.630;2023-02-19T00:13:52;101508.63;;;10.68;100.00
22872;BME280;11603;44.910;8.630;2023-02-19T00:16:24;101507.25;;;10.59;100.00
22872;BME280;11603;44.910;8.630;2023-02-19T00:18:51;101507.41;;;10.56;100.00
22872;BME280;11603;44.910;8.630;2023-02-19T00:21:17;101506.88;;;10.48;100.00
22872;BME280;11603;44.910;8.630;2023-02-19T00:23:43;101506.00;;;10.47;100.00
22872;BME280;11603;44.910;8.630;2023-02-19T00:26:12;101500.66;;;10.47;100.00
22872;BME280;11603;44.910;8.630;2023-02-19T00:28:39;101493.44;;;10.49;100.00
22872;BME280;11603;44.910;8.630;2023-02-19T00:31:06;101491.59;;;10.51;100.00
22872;BME280;11603;44.910;8.630;2023-02-19T00:33:33;101495.25;;;10.49;100.00
22872;BME280;11603;44.910;8.630;2023-02-19T00:36:03;101491.13;;;10.42;100.00
22872;BME280;11603;44.910;8.630;2023-02-19T00:38:30;101492.31;;;10.36;100.00
22872;BME280;11603;44.910;8.630;2023-02-19T00:40:58;101491.94;;;10.25;100.00
22872;BME280;11603;44.910;8.630;2023-02-19T00:43:23;101490.41;;;10.19;100.00
22872;BME280;11603;44.910;8.630;2023-02-19T00:45:49;101493.31;;;10.13;100.00
22872;BME280;11603;44.910;8.630;2023-02-19T00:48:14;101486.47;;;10.08;100.00
22872;BME280;11603;44.910;8.630;2023-02-19T00:50:40;101484.78;;;10.05;100.00
22872;BME280;11603;44.910;8.630;2023-02-19T00:53:05;101489.47;;;10.00;100.00
22872;BME280;11603;44.910;8.630;2023-02-19T00:55:31;101489.78;;;9.94;100.00
22872;BME280;11603;44.910;8.630;2023-02-19T00:57:56;101480.22;;;9.89;100.00
22872;BME280;11603;44.910;8.630;2023-02-19T01:00:22;101478.69;;;9.83;100.00
22872;BME280;11603;44.910;8.630;2023-02-19T01:02:47;101479.03;;;9.75;100.00
22872;BME280;11603;44.910;8.630;2023-02-19T01:05:13;101475.69;;;9.70;100.00
22872;BME280;11603;44.910;8.630;2023-02-19T01:07:38;101477.44;;;9.71;100.00
22872;BME280;11603;44.910;8.630;2023-02-19T01:10:06;101476.81;;;9.65;100.00
22872;BME280;11603;44.910;8.630;2023-02-19T01:12:32;101469.00;;;9.60;100.00
22872;BME280;11603;44.910;8.630;2023-02-19T01:14:57;101474.28;;;9.62;100.00
22872;BME280;11603;44.910;8.630;2023-02-19T01:17:23;101474.09;;;9.66;100.00
22872;BME280;11603;44.910;8.630;2023-02-19T01:19:48;101466.13;;;9.65;100.00
22872;BME280;11603;44.910;8.630;2023-02-19T01:22:14;101472.50;;;9.62;100.00
22872;BME280;11603;44.910;8.630;2023-02-19T01:24:40;101469.94;;;9.59;100.00
22872;BME280;11603;44.910;8.630;2023-02-19T01:27:06;101467.34;;;9.58;100.00
22872;BME280;11603;44.910;8.630;2023-02-19T01:29:32;101469.00;;;9.60;100.00
22872;BME280;11603;44.910;8.630;2023-02-19T01:31:59;101457.50;;;9.58;100.00
22872;BME280;11603;44.910;8.630;2023-02-19T01:34:24;101458.66;;;9.53;100.00
22872;BME280;11603;44.910;8.630;2023-02-19T01:36:51;101463.16;;;9.52;100.00
22872;BME280;11603;44.910;8.630;2023-02-19T01:39:17;101455.47;;;9.45;100.00
22872;BME280;11603;44.910;8.630;2023-02-19T01:41:42;101454.66;;;9.43;100.00
22872;BME280;11603;44.910;8.630;2023-02-19T01:46:53;101458.59;;;9.34;100.00
22872;BME280;11603;44.910;8.630;2023-02-19T01:49:26;101458.25;;;9.21;100.00
22872;BME280;11603;44.910;8.630;2023-02-19T01:52:08;101458.59;;;9.14;100.00
22872;BME280;11603;44.910;8.630;2023-02-19T01:54:36;101459.28;;;8.97;100.00
22872;BME280;11603;44.910;8.630;2023-02-19T01:57:21;101466.06;;;8.84;100.00
22872;BME280;11603;44.910;8.630;2023-02-19T01:59:51;101458.22;;;8.79;100.00
22872;BME280;11603;44.910;8.630;2023-02-19T02:02:20;101451.19;;;8.78;100.00
22872;BME280;11603;44.910;8.630;2023-02-19T02:04:47;101442.50;;;8.73;100.00
22872;BME280;11603;44.910;8.630;2023-02-19T02:07:14;101448.75;;;8.72;100.00
22872;BME280;11603;44.910;8.630;2023-02-19T02:09:58;101437.28;;;8.70;100.00
22872;BME280;11603;44.910;8.630;2023-02-19T02:12:42;101427.13;;;8.58;100.00
22872;BME280;11603;44.910;8.630;2023-02-19T02:15:08;101429.91;;;8.55;100.00
22872;BME280;11603;44.910;8.630;2023-02-19T02:31:24;101436.22;;;8.31;100.00
22872;BME280;11603;44.910;8.630;2023-02-19T02:34:06;101437.47;;;8.21;100.00
22872;BME280;11603;44.910;8.630;2023-02-19T02:36:37;101431.69;;;8.09;100.00
22872;BME280;11603;44.910;8.630;2023-02-19T02:39:08;101436.16;;;8.09;100.00
22872;BME280;11603;44.910;8.630;2023-02-19T02:41:43;101431.00;;;8.04;100.00
22872;BME280;11603;44.910;8.630;2023-02-19T02:44:10;101431.34;;;7.95;100.00
22872;BME280;11603;44.910;8.630;2023-02-19T02:46:40;101439.34;;;7.95;100.00
22872;BME280;11603;44.910;8.630;2023-02-19T02:49:15;101427.69;;;7.98;100.00
22872;BME280;11603;44.910;8.630;2023-02-19T02:51:45;101433.84;;;8.00;100.00
22872;BME280;11603;44.910;8.630;2023-02-19T02:54:22;101426.88;;;7.96;100.00
22872;BME280;11603;44.910;8.630;2023-02-19T02:57:12;101429.38;;;8.00;100.00
22872;BME280;11603;44.910;8.630;2023-02-19T02:59:45;101423.28;;;7.97;100.00
22872;BME280;11603;44.910;8.630;2023-02-19T03:02:17;101423.25;;;7.98;100.00
22872;BME280;11603;44.910;8.630;2023-02-19T03:04:59;101422.00;;;8.07;100.00
22872;BME280;11603;44.910;8.630;2023-02-19T03:10:21;101416.06;;;8.00;100.00
22872;BME280;11603;44.910;8.630;2023-02-19T03:12:49;101415.38;;;7.95;100.00
22872;BME280;11603;44.910;8.630;2023-02-19T03:15:40;101412.72;;;7.95;100.00
22872;BME280;11603;44.910;8.630;2023-02-19T03:18:49;101397.06;;;8.09;100.00
22872;BME280;11603;44.910;8.630;2023-02-19T03:21:36;101399.50;;;7.92;100.00
22872;BME280;11603;44.910;8.630;2023-02-19T03:24:09;101399.63;;;7.89;100.00
22872;BME280;11603;44.910;8.630;2023-02-19T03:26:55;101393.94;;;7.75;100.00
22872;BME280;11603;44.910;8.630;2023-02-19T03:29:29;101385.41;;;7.65;100.00
22872;BME280;11603;44.910;8.630;2023-02-19T03:32:07;101384.31;;;7.48;100.00
22872;BME280;11603;44.910;8.630;2023-02-19T03:34:37;101390.84;;;7.39;100.00
22872;BME280;11603;44.910;8.630;2023-02-19T03:37:37;101390.75;;;7.42;100.00
22872;BME280;11603;44.910;8.630;2023-02-19T03:40:04;101386.59;;;7.34;100.00
22872;BME280;11603;44.910;8.630;2023-02-19T03:42:38;101395.63;;;7.30;100.00
22872;BME280;11603;44.910;8.630;2023-02-19T03:48:02;101394.09;;;7.47;100.00
22872;BME280;11603;44.910;8.630;2023-02-19T03:50:47;101389.31;;;7.57;100.00
22872;BME280;11603;44.910;8.630;2023-02-19T03:56:32;101401.34;;;7.67;100.00
22872;BME280;11603;44.910;8.630;2023-02-19T03:59:27;101397.63;;;7.71;100.00
22872;BME280;11603;44.910;8.630;2023-02-19T04:01:57;101394.69;;;7.79;100.00
22872;BME280;11603;44.910;8.630;2023-02-19T04:04:31;101405.97;;;7.85;100.00
22872;BME280;11603;44.910;8.630;2023-02-19T04:06:59;101399.03;;;7.81;100.00
22872;BME280;11603;44.910;8.630;2023-02-19T04:09:35;101408.34;;;7.70;100.00
22872;BME280;11603;44.910;8.630;2023-02-19T04:12:08;101410.25;;;7.66;100.00
22872;BME280;11603;44.910;8.630;2023-02-19T04:14:39;101414.19;;;7.56;100.00
22872;BME280;11603;44.910;8.630;2023-02-19T04:17:14;101411.16;;;7.42;100.00
22872;BME280;11603;44.910;8.630;2023-02-19T04:19:42;101412.47;;;7.30;100.00
22872;BME280;11603;44.910;8.630;2023-02-19T04:22:08;101415.47;;;7.21;100.00
22872;BME280;11603;44.910;8.630;2023-02-19T04:24:47;101409.50;;;7.13;100.00
22872;BME280;11603;44.910;8.630;2023-02-19T04:27:14;101416.19;;;7.00;100.00
22872;BME280;11603;44.910;8.630;2023-02-19T04:29:40;101418.38;;;6.87;100.00
22872;BME280;11603;44.910;8.630;2023-02-19T04:32:05;101425.78;;;6.79;100.00
22872;BME280;11603;44.910;8.630;2023-02-19T04:34:31;101425.13;;;6.71;100.00
22872;BME280;11603;44.910;8.630;2023-02-19T04:36:56;101429.53;;;6.72;100.00
22872;BME280;11603;44.910;8.630;2023-02-19T04:39:22;101433.78;;;6.77;100.00
22872;BME280;11603;44.910;8.630;2023-02-19T04:41:47;101433.97;;;6.71;100.00
22872;BME280;11603;44.910;8.630;2023-02-19T04:44:13;101429.19;;;6.82;100.00
22872;BME280;11603;44.910;8.630;2023-02-19T04:46:39;101437.84;;;6.89;100.00
22872;BME280;11603;44.910;8.630;2023-02-19T04:49:05;101436.91;;;6.90;100.00
22872;BME280;11603;44.910;8.630;2023-02-19T04:51:31;101441.22;;;6.94;100.00
22872;BME280;11603;44.910;8.630;2023-02-19T04:53:58;101430.09;;;7.08;100.00
22872;BME280;11603;44.910;8.630;2023-02-19T04:56:23;101436.91;;;7.16;100.00
22872;BME280;11603;44.910;8.630;2023-02-19T04:58:49;101433.97;;;7.24;100.00
22872;BME280;11603;44.910;8.630;2023-02-19T05:01:15;101432.06;;;7.28;100.00
22872;BME280;11603;44.910;8.630;2023-02-19T05:03:41;101418.81;;;7.26;100.00
22872;BME280;11603;44.910;8.630;2023-02-19T05:06:09;101428.47;;;7.29;100.00
22872;BME280;11603;44.910;8.630;2023-02-19T05:08:36;101416.22;;;7.24;100.00
22872;BME280;11603;44.910;8.630;2023-02-19T05:11:04;101413.50;;;7.26;100.00
22872;BME280;11603;44.910;8.630;2023-02-19T05:13:30;101403.81;;;7.23;100.00
22872;BME280;11603;44.910;8.630;2023-02-19T05:15:57;101411.94;;;7.20;100.00
22872;BME280;11603;44.910;8.630;2023-02-19T05:18:24;101415.38;;;7.22;100.00
22872;BME280;11603;44.910;8.630;2023-02-19T05:20:50;101410.22;;;7.18;100.00
22872;BME280;11603;44.910;8.630;2023-02-19T05:23:16;101412.84;;;7.19;100.00
22872;BME280;11603;44.910;8.630;2023-02-19T05:25:41;101409.31;;;7.19;100.00
22872;BME280;11603;44.910;8.630;2023-02-19T05:28:07;101406.59;;;7.20;100.00
22872;BME280;11603;44.910;8.630;2023-02-19T05:30:42;101405.59;;;7.23;100.00
22872;BME280;11603;44.910;8.630;2023-02-19T05:33:08;101413.53;;;7.24;100.00
22872;BME280;11603;44.910;8.630;2023-02-19T05:35:33;101411.81;;;7.23;100.00
22872;BME280;11603;44.910;8.630;2023-02-19T05:37:59;101406.56;;;7.22;100.00
22872;BME280;11603;44.910;8.630;2023-02-19T05:40:25;101403.78;;;7.25;100.00
22872;BME280;11603;44.910;8.630;2023-02-19T05:42:50;101402.03;;;7.24;100.00
22872;BME280;11603;44.910;8.630;2023-02-19T05:45:16;101403.78;;;7.25;100.00
22872;BME280;11603;44.910;8.630;2023-02-19T05:47:41;101410.75;;;7.28;100.00
22872;BME280;11603;44.910;8.630;2023-02-19T05:50:07;101397.47;;;7.28;100.00
22872;BME280;11603;44.910;8.630;2023-02-19T05:52:32;101402.66;;;7.32;100.00
22872;BME280;11603;44.910;8.630;2023-02-19T05:54:58;101408.75;;;7.34;100.00
22872;BME280;11603;44.910;8.630;2023-02-19T05:57:23;101413.88;;;7.40;100.00
22872;BME280;11603;44.910;8.630;2023-02-19T05:59:48;101406.63;;;7.44;100.00
22872;BME280;11603;44.910;8.630;2023-02-19T06:02:14;101415.81;;;7.35;100.00
22872;BME280;11603;44.910;8.630;2023-02-19T06:04:39;101411.75;;;7.25;100.00
22872;BME280;11603;44.910;8.630;2023-02-19T06:07:05;101416.75;;;7.34;100.00
22872;BME280;11603;44.910;8.630;2023-02-19T06:09:30;101415.00;;;7.33;100.00
22872;BME280;11603;44.910;8.630;2023-02-19T06:11:56;101408.94;;;7.30;100.00
22872;BME280;11603;44.910;8.630;2023-02-19T06:14:21;101399.19;;;7.29;100.00
22872;BME280;11603;44.910;8.630;2023-02-19T06:16:47;101398.34;;;7.28;100.00
22872;BME280;11603;44.910;8.630;2023-02-19T06:19:12;101405.53;;;7.26;100.00
22872;BME280;11603;44.910;8.630;2023-02-19T06:21:38;101409.81;;;7.30;100.00
22872;BME280;11603;44.910;8.630;2023-02-19T06:24:05;101411.50;;;7.33;100.00
22872;BME280;11603;44.910;8.630;2023-02-19T06:26:30;101410.72;;;7.29;100.00
22872;BME280;11603;44.910;8.630;2023-02-19T06:28:56;101418.00;;;7.24;100.00
22872;BME280;11603;44.910;8.630;2023-02-19T06:31:22;101414.63;;;7.19;100.00
22872;BME280;11603;44.910;8.630;2023-02-19T06:33:49;101408.34;;;7.21;100.00
22872;BME280;11603;44.910;8.630;2023-02-19T06:36:16;101415.34;;;7.24;100.00
22872;BME280;11603;44.910;8.630;2023-02-19T06:38:42;101411.72;;;7.27;100.00
22872;BME280;11603;44.910;8.630;2023-02-19T06:41:09;101419.69;;;7.27;100.00
22872;BME280;11603;44.910;8.630;2023-02-19T06:43:35;101418.13;;;7.21;100.00
22872;BME280;11603;44.910;8.630;2023-02-19T06:46:02;101417.13;;;7.23;100.00
22872;BME280;11603;44.910;8.630;2023-02-19T06:48:29;101414.38;;;7.27;100.00
22872;BME280;11603;44.910;8.630;2023-02-19T06:50:56;101412.41;;;7.32;100.00
22872;BME280;11603;44.910;8.630;2023-02-19T06:53:22;101414.16;;;7.33;100.00
22872;BME280;11603;44.910;8.630;2023-02-19T06:55:57;101419.38;;;7.36;100.00
22872;BME280;11603;44.910;8.630;2023-02-19T06:58:24;101410.25;;;7.43;100.00
22872;BME280;11603;44.910;8.630;2023-02-19T07:00:50;101409.16;;;7.48;100.00
22872;BME280;11603;44.910;8.630;2023-02-19T07:03:16;101405.53;;;7.49;100.00
22872;BME280;11603;44.910;8.630;2023-02-19T07:05:41;101415.31;;;7.49;100.00
22872;BME280;11603;44.910;8.630;2023-02-19T07:08:08;101407.28;;;7.50;100.00
22872;BME280;11603;44.910;8.630;2023-02-19T07:10:33;101417.97;;;7.49;100.00
22872;BME280;11603;44.910;8.630;2023-02-19T07:12:59;101421.34;;;7.54;100.00
22872;BME280;11603;44.910;8.630;2023-02-19T07:15:24;101411.56;;;7.54;100.00
22872;BME280;11603;44.910;8.630;2023-02-19T07:17:50;101415.19;;;7.53;100.00
22872;BME280;11603;44.910;8.630;2023-02-19T07:20:15;101421.59;;;7.48;100.00
22872;BME280;11603;44.910;8.630;2023-02-19T07:22:40;101420.78;;;7.46;100.00
22872;BME280;11603;44.910;8.630;2023-02-19T07:25:06;101411.03;;;7.45;100.00
22872;BME280;11603;44.910;8.630;2023-02-19T07:27:31;101415.19;;;7.53;100.00
22872;BME280;11603;44.910;8.630;2023-02-19T07:29:57;101418.94;;;7.71;100.00
22872;BME280;11603;44.910;8.630;2023-02-19T07:32:23;101436.09;;;7.87;100.00
22872;BME280;11603;44.910;8.630;2023-02-19T07:34:48;101424.22;;;7.96;100.00
22872;BME280;11603;44.910;8.630;2023-02-19T07:37:14;101418.13;;;7.92;100.00
22872;BME280;11603;44.910;8.630;2023-02-19T07:39:39;101426.19;;;7.91;100.00
22872;BME280;11603;44.910;8.630;2023-02-19T07:42:05;101427.91;;;7.92;100.00
22872;BME280;11603;44.910;8.630;2023-02-19T07:44:31;101433.38;;;7.89;100.00
22872;BME280;11603;44.910;8.630;2023-02-19T07:46:56;101429.63;;;7.94;100.00
22872;BME280;11603;44.910;8.630;2023-02-19T07:49:21;101430.53;;;7.93;100.00
22872;BME280;11603;44.910;8.630;2023-02-19T07:51:48;101431.22;;;7.98;100.00
22872;BME280;11603;44.910;8.630;2023-02-19T07:54:13;101429.91;;;8.10;100.00
22872;BME280;11603;44.910;8.630;2023-02-19T07:56:39;101432.44;;;8.13;100.00
22872;BME280;11603;44.910;8.630;2023-02-19T07:59:04;101434.72;;;8.22;100.00
22872;BME280;11603;44.910;8.630;2023-02-19T08:01:30;101437.16;;;8.28;100.00
22872;BME280;11603;44.910;8.630;2023-02-19T08:04:27;101422.56;;;8.38;100.00
22872;BME280;11603;44.910;8.630;2023-02-19T08:06:53;101424.63;;;8.54;100.00
22872;BME280;11603;44.910;8.630;2023-02-19T08:09:18;101416.97;;;8.68;100.00
22872;BME280;11603;44.910;8.630;2023-02-19T08:11:44;101423.22;;;8.67;100.00
22872;BME280;11603;44.910;8.630;2023-02-19T08:14:28;101419.91;;;8.82;100.00
22872;BME280;11603;44.910;8.630;2023-02-19T08:16:53;101415.00;;;8.93;100.00
22872;BME280;11603;44.910;8.630;2023-02-19T08:19:20;101415.66;;;8.98;100.00
22872;BME280;11603;44.910;8.630;2023-02-19T08:21:45;101416.09;;;9.09;100.00
22872;BME280;11603;44.910;8.630;2023-02-19T08:24:11;101400.53;;;8.99;100.00
22872;BME280;11603;44.910;8.630;2023-02-19T08:26:38;101406.59;;;9.02;100.00
22872;BME280;11603;44.910;8.630;2023-02-19T08:29:04;101418.88;;;9.06;100.00
22872;BME280;11603;44.910;8.630;2023-02-19T08:31:30;101436.09;;;9.19;100.00
22872;BME280;11603;44.910;8.630;2023-02-19T08:33:56;101435.84;;;9.25;100.00
22872;BME280;11603;44.910;8.630;2023-02-19T08:36:21;101437.50;;;9.28;100.00
22872;BME280;11603;44.910;8.630;2023-02-19T08:38:47;101440.78;;;9.14;100.00
22872;BME280;11603;44.910;8.630;2023-02-19T08:41:13;101443.50;;;9.33;100.00
22872;BME280;11603;44.910;8.630;2023-02-19T08:43:40;101430.56;;;9.44;100.00
22872;BME280;11603;44.910;8.630;2023-02-19T08:46:07;101436.34;;;9.54;100.00
22872;BME280;11603;44.910;8.630;2023-02-19T08:48:34;101427.09;;;9.62;100.00
22872;BME280;11603;44.910;8.630;2023-02-19T08:51:02;101434.53;;;9.74;100.00
22872;BME280;11603;44.910;8.630;2023-02-19T08:53:29;101435.06;;;9.83;100.00
22872;BME280;11603;44.910;8.630;2023-02-19T08:55:55;101441.84;;;9.90;100.00
22872;BME280;11603;44.910;8.630;2023-02-19T08:58:21;101436.16;;;9.97;100.00
22872;BME280;11603;44.910;8.630;2023-02-19T09:00:47;101434.41;;;9.96;100.00
22872;BME280;11603;44.910;8.630;2023-02-19T09:03:12;101424.72;;;9.75;100.00
22872;BME280;11603;44.910;8.630;2023-02-19T09:05:38;101433.75;;;9.72;100.00
22872;BME280;11603;44.910;8.630;2023-02-19T09:08:04;101434.03;;;9.85;100.00
22872;BME280;11603;44.910;8.630;2023-02-19T09:10:29;101419.69;;;9.88;100.00
22872;BME280;11603;44.910;8.630;2023-02-19T09:12:54;101412.81;;;10.01;100.00
22872;BME280;11603;44.910;8.630;2023-02-19T09:15:20;101408.66;;;10.14;100.00
22872;BME280;11603;44.910;8.630;2023-02-19T09:17:52;101410.31;;;10.16;100.00
22872;BME280;11603;44.910;8.630;2023-02-19T09:20:18;101414.13;;;10.48;100.00
22872;BME280;11603;44.910;8.630;2023-02-19T09:22:44;101413.06;;;10.88;100.00
22872;BME280;11603;44.910;8.630;2023-02-19T09:25:09;101405.25;;;11.18;100.00
22872;BME280;11603;44.910;8.630;2023-02-19T09:27:34;101411.25;;;11.40;100.00
22872;BME280;11603;44.910;8.630;2023-02-19T09:30:00;101404.75;;;11.62;100.00
22872;BME280;11603;44.910;8.630;2023-02-19T09:32:29;101393.41;;;11.89;100.00
22872;BME280;11603;44.910;8.630;2023-02-19T09:34:55;101384.25;;;11.94;100.00
22872;BME280;11603;44.910;8.630;2023-02-19T09:37:24;101386.75;;;11.81;100.00
22872;BME280;11603;44.910;8.630;2023-02-19T09:39:51;101376.72;;;11.84;100.00
22872;BME280;11603;44.910;8.630;2023-02-19T09:42:19;101379.59;;;11.97;100.00
22872;BME280;11603;44.910;8.630;2023-02-19T09:44:52;101379.63;;;12.13;100.00
22872;BME280;11603;44.910;8.630;2023-02-19T09:47:20;101384.38;;;12.23;100.00
22872;BME280;11603;44.910;8.630;2023-02-19T09:49:49;101373.91;;;12.35;100.00
22872;BME280;11603;44.910;8.630;2023-02-19T09:54:43;101381.94;;;12.50;100.00
22872;BME280;11603;44.910;8.630;2023-02-19T09:57:14;101370.22;;;12.51;100.00
22872;BME280;11603;44.910;8.630;2023-02-19T10:00:05;101370.34;;;12.50;100.00
22872;BME280;11603;44.910;8.630;2023-02-19T10:02:30;101362.09;;;12.53;100.00
22872;BME280;11603;44.910;8.630;2023-02-19T10:04:57;101360.47;;;12.50;100.00
22872;BME280;11603;44.910;8.630;2023-02-19T10:07:25;101354.25;;;12.50;100.00
22872;BME280;11603;44.910;8.630;2023-02-19T10:09:59;101358.63;;;12.66;100.00
22872;BME280;11603;44.910;8.630;2023-02-19T10:12:28;101356.91;;;12.95;100.00
22872;BME280;11603;44.910;8.630;2023-02-19T10:15:03;101368.91;;;13.04;100.00
22872;BME280;11603;44.910;8.630;2023-02-19T10:17:33;101361.34;;;13.10;100.00
22872;BME280;11603;44.910;8.630;2023-02-19T10:20:00;101360.00;;;13.33;100.00
22872;BME280;11603;44.910;8.630;2023-02-19T10:22:31;101353.47;;;13.37;100.00
22872;BME280;11603;44.910;8.630;2023-02-19T10:24:56;101353.16;;;13.56;100.00
22872;BME280;11603;44.910;8.630;2023-02-19T10:27:26;101344.53;;;13.79;100.00
22872;BME280;11603;44.910;8.630;2023-02-19T10:29:54;101340.09;;;13.92;100.00
22872;BME280;11603;44.910;8.630;2023-02-19T10:32:22;101335.53;;;14.21;100.00
22872;BME280;11603;44.910;8.630;2023-02-19T10:37:44;101334.00;;;14.58;100.00
22872;BME280;11603;44.910;8.630;2023-02-19T10:40:17;101325.50;;;14.64;100.00
22872;BME280;11603;44.910;8.630;2023-02-19T10:42:45;101330.84;;;14.52;100.00
22872;BME280;11603;44.910;8.630;2023-02-19T10:45:21;101329.22;;;14.49;100.00
22872;BME280;11603;44.910;8.630;2023-02-19T10:47:48;101328.16;;;14.52;100.00
22872;BME280;11603;44.910;8.630;2023-02-19T10:50:35;101317.44;;;14.37;100.00
22872;BME280;11603;44.910;8.630;2023-02-19T10:53:20;101306.84;;;14.61;100.00
22872;BME280;11603;44.910;8.630;2023-02-19T10:55:47;101298.16;;;14.70;100.00
22872;BME280;11603;44.910;8.630;2023-02-19T10:58:22;101296.56;;;14.80;100.00
22872;BME280;11603;44.910;8.630;2023-02-19T11:01:09;101294.56;;;14.97;100.00
22872;BME280;11603;44.910;8.630;2023-02-19T11:03:36;101296.38;;;15.09;100.00
22872;BME280;11603;44.910;8.630;2023-02-19T11:06:03;101288.31;;;15.21;100.00
22872;BME280;11603;44.910;8.630;2023-02-19T11:08:55;101280.28;;;15.71;100.00
22872;BME280;11603;44.910;8.630;2023-02-19T11:11:32;101280.53;;;15.67;100.00
22872;BME280;11603;44.910;8.630;2023-02-19T11:14:02;101278.25;;;15.61;100.00
22872;BME280;11603;44.910;8.630;2023-02-19T11:16:56;101276.19;;;15.78;100.00
22872;BME280;11603;44.910;8.630;2023-02-19T11:19:38;101266.47;;;16.12;100.00
22872;BME280;11603;44.910;8.630;2023-02-19T11:22:30;101259.22;;;16.12;100.00
22872;BME280;11603;44.910;8.630;2023-02-19T11:25:06;101256.06;;;16.18;100.00
22872;BME280;11603;44.910;8.630;2023-02-19T11:30:44;101241.50;;;16.56;100.00
22872;BME280;11603;44.910;8.630;2023-02-19T11:35:42;101234.78;;;16.61;100.00
22872;BME280;11603;44.910;8.630;2023-02-19T11:38:10;101233.66;;;16.52;100.00
22872;BME280;11603;44.910;8.630;2023-02-19T11:40:43;101235.94;;;16.46;100.00
22872;BME280;11603;44.910;8.630;2023-02-19T11:46:08;101217.25;;;16.32;100.00
22872;BME280;11603;44.910;8.630;2023-02-19T11:54:38;101204.97;;;16.63;100.00
22872;BME280;11603;44.910;8.630;2023-02-19T11:57:14;101201.66;;;16.70;100.00
22872;BME280;11603;44.910;8.630;2023-02-19T11:59:47;101195.69;;;16.89;100.00
22872;BME280;11603;44.910;8.630;2023-02-19T12:02:26;101187.44;;;17.02;100.00
22872;BME280;11603;44.910;8.630;2023-02-19T12:07:57;101181.56;;;16.97;100.00
22872;BME280;11603;44.910;8.630;2023-02-19T12:10:55;101177.78;;;17.21;100.00
22872;BME280;11603;44.910;8.630;2023-02-19T12:13:46;101161.75;;;17.41;100.00
22872;BME280;11603;44.910;8.630;2023-02-19T12:16:53;101159.03;;;17.52;100.00
22872;BME280;11603;44.910;8.630;2023-02-19T12:22:25;101158.06;;;17.64;100.00
22872;BME280;11603;44.910;8.630;2023-02-19T12:28:17;101144.94;;;17.91;100.00
22872;BME280;11603;44.910;8.630;2023-02-19T12:31:08;101145.56;;;17.95;100.00
22872;BME280;11603;44.910;8.630;2023-02-19T12:34:24;101147.09;;;17.65;100.00
22872;BME280;11603;44.910;8.630;2023-02-19T12:43:12;101138.31;;;18.16;100.00
22872;BME280;11603;44.910;8.630;2023-02-19T12:46:04;101134.44;;;18.30;100.00
22872;BME280;11603;44.910;8.630;2023-02-19T12:51:07;101117.44;;;18.69;100.00
22872;BME280;11603;44.910;8.630;2023-02-19T12:53:45;101123.81;;;18.58;100.00
22872;BME280;11603;44.910;8.630;2023-02-19T12:56:18;101114.72;;;18.69;100.00
22872;BME280;11603;44.910;8.630;2023-02-19T12:58:51;101109.97;;;18.82;100.00
22872;BME280;11603;44.910;8.630;2023-02-19T13:01:22;101104.66;;;18.81;100.00
22872;BME280;11603;44.910;8.630;2023-02-19T13:07:25;101096.03;;;18.66;100.00
22872;BME280;11603;44.910;8.630;2023-02-19T13:10:24;101087.09;;;18.75;100.00
22872;BME280;11603;44.910;8.630;2023-02-19T13:12:45;101085.72;;;18.90;100.00
22872;BME280;11603;44.910;8.630;2023-02-19T13:15:31;101078.03;;;18.95;98.64
22872;BME280;11603;44.910;8.630;2023-02-19T13:17:59;101077.81;;;19.08;97.02
22872;BME280;11603;44.910;8.630;2023-02-19T13:20:31;101078.09;;;19.05;96.82
22872;BME280;11603;44.910;8.630;2023-02-19T13:36:34;101066.31;;;19.35;89.18
22872;BME280;11603;44.910;8.630;2023-02-19T13:39:04;101062.72;;;19.25;88.51
22872;BME280;11603;44.910;8.630;2023-02-19T13:41:41;101058.50;;;18.92;91.67
22872;BME280;11603;44.910;8.630;2023-02-19T13:44:16;101067.81;;;18.99;92.01
22872;BME280;11603;44.910;8.630;2023-02-19T13:46:45;101057.41;;;19.14;92.66
22872;BME280;11603;44.910;8.630;2023-02-19T13:51:56;101058.09;;;19.46;90.46
22872;BME280;11603;44.910;8.630;2023-02-19T13:59:43;101046.22;;;19.47;91.33
22872;BME280;11603;44.910;8.630;2023-02-19T14:05:04;101055.59;;;19.24;93.22
22872;BME280;11603;44.910;8.630;2023-02-19T14:07:52;101056.38;;;19.55;91.91
22872;BME280;11603;44.910;8.630;2023-02-19T14:10:53;101055.81;;;19.80;88.48
22872;BME280;11603;44.910;8.630;2023-02-19T14:13:57;101054.53;;;19.74;88.96
22872;BME280;11603;44.910;8.630;2023-02-19T14:19:03;101056.50;;;19.53;90.11
22872;BME280;11603;44.910;8.630;2023-02-19T14:21:39;101046.94;;;19.49;88.83
22872;BME280;11603;44.910;8.630;2023-02-19T14:24:10;101052.81;;;19.54;90.31
22872;BME280;11603;44.910;8.630;2023-02-19T14:26:36;101052.53;;;19.57;90.05
22872;BME280;11603;44.910;8.630;2023-02-19T14:29:06;101050.25;;;19.62;90.68
22872;BME280;11603;44.910;8.630;2023-02-19T14:31:35;101044.22;;;19.49;90.64
22872;BME280;11603;44.910;8.630;2023-02-19T14:36:58;101059.78;;;19.47;90.71
22872;BME280;11603;44.910;8.630;2023-02-19T14:39:33;101064.94;;;19.50;89.75
22872;BME280;11603;44.910;8.630;2023-02-19T14:42:07;101058.44;;;19.22;92.04